sensor_id;sensor_type;location;lat;lon;timestamp;temperature;humidity
39067;DHT22;24821;51.988;6.020;2022-10-28T00:01:18;15.60;99.90
39067;DHT22;24821;51.988;6.020;2022-10-28T00:03:50;15.50;99.90
39067;DHT22;24821;51.988;6.020;2022-10-28T00:06:21;15.50;99.90
39067;DHT22;24821;51.988;6.020;2022-10-28T00:08:47;15.40;99.90
39067;DHT22;24821;51.988;6.020;2022-10-28T00:11:16;15.40;99.90
39067;DHT22;24821;51.988;6.020;2022-10-28T00:13:42;15.40;99.90
39067;DHT22;24821;51.988;6.020;2022-10-28T00:16:14;15.40;99.90
39067;DHT22;24821;51.988;6.020;2022-10-28T00:18:40;15.40;99.90
39067;DHT22;24821;51.988;6.020;2022-10-28T00:21:09;15.40;99.90
39067;DHT22;24821;51.988;6.020;2022-10-28T00:23:35;15.30;99.90
39067;DHT22;24821;51.988;6.020;2022-10-28T00:26:11;15.30;99.90
39067;DHT22;24821;51.988;6.020;2022-10-28T00:28:41;15.30;99.90
39067;DHT22;24821;51.988;6.020;2022-10-28T00:31:09;15.30;99.90
39067;DHT22;24821;51.988;6.020;2022-10-28T00:33:35;15.20;99.90
39067;DHT22;24821;51.988;6.020;2022-10-28T00:36:18;15.20;99.90
39067;DHT22;24821;51.988;6.020;2022-10-28T00:38:45;15.30;99.90
39067;DHT22;24821;51.988;6.020;2022-10-28T00:41:15;15.20;99.90
39067;DHT22;24821;51.988;6.020;2022-10-28T00:43:47;15.20;99.90
39067;DHT22;24821;51.988;6.020;2022-10-28T00:46:29;15.20;99.90
39067;DHT22;24821;51.988;6.020;2022-10-28T00:51:46;15.10;99.90
39067;DHT22;24821;51.988;6.020;2022-10-28T00:54:14;15.00;99.90
39067;DHT22;24821;51.988;6.020;2022-10-28T00:56:49;15.00;99.90
39067;DHT22;24821;51.988;6.020;2022-10-28T00:59:30;15.00;99.90
39067;DHT22;24821;51.988;6.020;2022-10-28T01:01:57;15.00;99.90
39067;DHT22;24821;51.988;6.020;2022-10-28T01:04:22;15.00;99.90
39067;DHT22;24821;51.988;6.020;2022-10-28T01:06:49;15.00;99.90
39067;DHT22;24821;51.988;6.020;2022-10-28T01:09:15;15.00;99.90
39067;DHT22;24821;51.988;6.020;2022-10-28T01:11:47;15.00;99.90
39067;DHT22;24821;51.988;6.020;2022-10-28T01:17:23;15.00;99.90
39067;DHT22;24821;51.988;6.020;2022-10-28T01:30:20;14.90;99.90
39067;DHT22;24821;51.988;6.020;2022-10-28T01:33:14;14.90;99.90
39067;DHT22;24821;51.988;6.020;2022-10-28T01:35:48;14.90;99.90
39067;DHT22;24821;51.988;6.020;2022-10-28T01:43:28;14.90;99.90
39067;DHT22;24821;51.988;6.020;2022-10-28T01:46:10;14.80;99.90
39067;DHT22;24821;51.988;6.020;2022-10-28T01:48:47;14.80;99.90
39067;DHT22;24821;51.988;6.020;2022-10-28T01:51:52;14.80;99.90
39067;DHT22;24821;51.988;6.020;2022-10-28T01:54:22;14.80;99.90
39067;DHT22;24821;51.988;6.020;2022-10-28T01:56:50;14.70;99.90
39067;DHT22;24821;51.988;6.020;2022-10-28T01:59:20;14.70;99.90
39067;DHT22;24821;51.988;6.020;2022-10-28T02:01:47;14.70;99.90
39067;DHT22;24821;51.988;6.020;2022-10-28T02:04:12;14.70;99.90
39067;DHT22;24821;51.988;6.020;2022-10-28T02:06:40;14.70;99.90
39067;DHT22;24821;51.988;6.020;2022-10-28T02:12:10;14.80;99.90
39067;DHT22;24821;51.988;6.020;2022-10-28T02:22:48;14.60;99.90
39067;DHT22;24821;51.988;6.020;2022-10-28T02:25:24;14.70;99.90
39067;DHT22;24821;51.988;6.020;2022-10-28T02:28:05;14.60;99.90
39067;DHT22;24821;51.988;6.020;2022-10-28T02:30:51;14.60;99.90
39067;DHT22;24821;51.988;6.020;2022-10-28T02:33:24;14.60;99.90
39067;DHT22;24821;51.988;6.020;2022-10-28T02:35:54;14.50;99.90
39067;DHT22;24821;51.988;6.020;2022-10-28T02:38:39;14.50;99.90
39067;DHT22;24821;51.988;6.020;2022-10-28T02:43:42;14.50;99.90
39067;DHT22;24821;51.988;6.020;2022-10-28T02:46:09;14.50;99.90
39067;DHT22;24821;51.988;6.020;2022-10-28T02:48:50;14.40;99.90
39067;DHT22;24821;51.988;6.020;2022-10-28T02:51:20;14.50;99.90
39067;DHT22;24821;51.988;6.020;2022-10-28T02:56:20;14.40;99.90
39067;DHT22;24821;51.988;6.020;2022-10-28T02:58:47;14.30;99.90
39067;DHT22;24821;51.988;6.020;2022-10-28T03:01:13;14.30;99.90
39067;DHT22;24821;51.988;6.020;2022-10-28T03:03:39;14.30;99.90
39067;DHT22;24821;51.988;6.020;2022-10-28T03:06:05;14.40;99.90
39067;DHT22;24821;51.988;6.020;2022-10-28T03:08:30;14.40;99.90
39067;DHT22;24821;51.988;6.020;2022-10-28T03:10:56;14.40;99.90
39067;DHT22;24821;51.988;6.020;2022-10-28T03:13:22;14.40;99.90
39067;DHT22;24821;51.988;6.020;2022-10-28T03:15:47;14.40;99.90
39067;DHT22;24821;51.988;6.020;2022-10-28T03:18:13;14.40;99.90
39067;DHT22;24821;51.988;6.020;2022-10-28T03:20:38;14.40;99.90
39067;DHT22;24821;51.988;6.020;2022-10-28T03:23:04;14.40;99.90
39067;DHT22;24821;51.988;6.020;2022-10-28T03:25:29;14.40;99.90
39067;DHT22;24821;51.988;6.020;2022-10-28T03:27:55;14.40;99.90
39067;DHT22;24821;51.988;6.020;2022-10-28T03:30:20;14.40;99.90
39067;DHT22;24821;51.988;6.020;2022-10-28T03:32:46;14.40;99.90
39067;DHT22;24821;51.988;6.020;2022-10-28T03:35:11;14.40;99.90
39067;DHT22;24821;51.988;6.020;2022-10-28T03:37:40;14.40;99.90
39067;DHT22;24821;51.988;6.020;2022-10-28T03:40:06;14.40;99.90
39067;DHT22;24821;51.988;6.020;2022-10-28T03:42:32;14.40;99.90
39067;DHT22;24821;51.988;6.020;2022-10-28T03:44:58;14.40;99.90
39067;DHT22;24821;51.988;6.020;2022-10-28T03:47:24;14.40;99.90
39067;DHT22;24821;51.988;6.020;2022-10-28T03:49:49;14.40;99.90
39067;DHT22;24821;51.988;6.020;2022-10-28T03:52:15;14.40;99.90
39067;DHT22;24821;51.988;6.020;2022-10-28T03:54:41;14.30;99.90
39067;DHT22;24821;51.988;6.020;2022-10-28T03:57:06;14.30;99.90
39067;DHT22;24821;51.988;6.020;2022-10-28T03:59:32;14.30;99.90
39067;DHT22;24821;51.988;6.020;2022-10-28T04:01:57;14.30;99.90
39067;DHT22;24821;51.988;6.020;2022-10-28T04:04:23;14.30;99.90
39067;DHT22;24821;51.988;6.020;2022-10-28T04:06:48;14.30;99.90
39067;DHT22;24821;51.988;6.020;2022-10-28T04:09:14;14.30;99.90
39067;DHT22;24821;51.988;6.020;2022-10-28T04:11:39;14.30;99.90
39067;DHT22;24821;51.988;6.020;2022-10-28T04:14:05;14.30;99.90
39067;DHT22;24821;51.988;6.020;2022-10-28T04:16:30;14.30;99.90
39067;DHT22;24821;51.988;6.020;2022-10-28T04:18:56;14.20;99.90
39067;DHT22;24821;51.988;6.020;2022-10-28T04:21:21;14.20;99.90
39067;DHT22;24821;51.988;6.020;2022-10-28T04:23:47;14.20;99.90
39067;DHT22;24821;51.988;6.020;2022-10-28T04:26:12;14.20;99.90
39067;DHT22;24821;51.988;6.020;2022-10-28T04:28:39;14.30;99.90
39067;DHT22;24821;51.988;6.020;2022-10-28T04:31:05;14.20;99.90
39067;DHT22;24821;51.988;6.020;2022-10-28T04:33:31;14.20;99.90
39067;DHT22;24821;51.988;6.020;2022-10-28T04:35:56;14.20;99.90
39067;DHT22;24821;51.988;6.020;2022-10-28T04:38:22;14.20;99.90
39067;DHT22;24821;51.988;6.020;2022-10-28T04:40:48;14.20;99.90
39067;DHT22;24821;51.988;6.020;2022-10-28T04:43:14;14.20;99.90
39067;DHT22;24821;51.988;6.020;2022-10-28T04:45:39;14.20;99.90
39067;DHT22;24821;51.988;6.020;2022-10-28T04:48:05;14.20;99.90
39067;DHT22;24821;51.988;6.020;2022-10-28T04:50:31;14.20;99.90
39067;DHT22;24821;51.988;6.020;2022-10-28T04:52:57;14.20;99.90
39067;DHT22;24821;51.988;6.020;2022-10-28T04:55:22;14.20;99.90
39067;DHT22;24821;51.988;6.020;2022-10-28T04:57:55;14.10;99.90
39067;DHT22;24821;51.988;6.020;2022-10-28T05:00:22;14.20;99.90
39067;DHT22;24821;51.988;6.020;2022-10-28T05:02:48;14.10;99.90
39067;DHT22;24821;51.988;6.020;2022-10-28T05:05:15;14.10;99.90
39067;DHT22;24821;51.988;6.020;2022-10-28T05:07:41;14.10;99.90
39067;DHT22;24821;51.988;6.020;2022-10-28T05:10:06;14.10;99.90
39067;DHT22;24821;51.988;6.020;2022-10-28T05:12:32;14.10;99.90
39067;DHT22;24821;51.988;6.020;2022-10-28T05:14:58;14.10;99.90
39067;DHT22;24821;51.988;6.020;2022-10-28T05:17:23;14.10;99.90
39067;DHT22;24821;51.988;6.020;2022-10-28T05:19:49;14.20;99.90
39067;DHT22;24821;51.988;6.020;2022-10-28T05:22:14;14.20;99.90
39067;DHT22;24821;51.988;6.020;2022-10-28T05:24:40;14.20;99.90
39067;DHT22;24821;51.988;6.020;2022-10-28T05:27:05;14.30;99.90
39067;DHT22;24821;51.988;6.020;2022-10-28T05:29:31;14.20;99.90
39067;DHT22;24821;51.988;6.020;2022-10-28T05:31:57;14.20;99.90
39067;DHT22;24821;51.988;6.020;2022-10-28T05:34:23;14.20;99.90
39067;DHT22;24821;51.988;6.020;2022-10-28T05:36:48;14.20;99.90
39067;DHT22;24821;51.988;6.020;2022-10-28T05:39:15;14.20;99.90
39067;DHT22;24821;51.988;6.020;2022-10-28T05:41:41;14.20;99.90
39067;DHT22;24821;51.988;6.020;2022-10-28T05:44:06;14.20;99.90
39067;DHT22;24821;51.988;6.020;2022-10-28T05:46:32;14.20;99.90
39067;DHT22;24821;51.988;6.020;2022-10-28T05:48:57;14.20;99.90
39067;DHT22;24821;51.988;6.020;2022-10-28T05:51:23;14.20;99.90
39067;DHT22;24821;51.988;6.020;2022-10-28T05:53:48;14.30;99.90
39067;DHT22;24821;51.988;6.020;2022-10-28T05:56:16;14.30;99.90
39067;DHT22;24821;51.988;6.020;2022-10-28T05:58:42;14.40;99.90
39067;DHT22;24821;51.988;6.020;2022-10-28T06:01:08;14.40;99.90
39067;DHT22;24821;51.988;6.020;2022-10-28T06:03:33;14.40;99.90
39067;DHT22;24821;51.988;6.020;2022-10-28T06:05:59;14.40;99.90
39067;DHT22;24821;51.988;6.020;2022-10-28T06:08:25;14.50;99.90
39067;DHT22;24821;51.988;6.020;2022-10-28T06:10:52;14.50;99.90
39067;DHT22;24821;51.988;6.020;2022-10-28T06:13:18;14.50;99.90
39067;DHT22;24821;51.988;6.020;2022-10-28T06:15:43;14.60;99.90
39067;DHT22;24821;51.988;6.020;2022-10-28T06:18:09;14.70;99.90
39067;DHT22;24821;51.988;6.020;2022-10-28T06:20:34;14.80;99.90
39067;DHT22;24821;51.988;6.020;2022-10-28T06:23:00;14.80;99.90
39067;DHT22;24821;51.988;6.020;2022-10-28T06:25:26;14.90;99.90
39067;DHT22;24821;51.988;6.020;2022-10-28T06:27:56;14.90;99.90
39067;DHT22;24821;51.988;6.020;2022-10-28T06:30:23;15.00;99.90
39067;DHT22;24821;51.988;6.020;2022-10-28T06:32:49;15.10;99.90
39067;DHT22;24821;51.988;6.020;2022-10-28T06:35:15;15.10;99.90
39067;DHT22;24821;51.988;6.020;2022-10-28T06:37:40;15.20;99.90
39067;DHT22;24821;51.988;6.020;2022-10-28T06:40:06;15.30;99.90
39067;DHT22;24821;51.988;6.020;2022-10-28T06:42:32;15.40;99.90
39067;DHT22;24821;51.988;6.020;2022-10-28T06:44:58;15.40;99.90
39067;DHT22;24821;51.988;6.020;2022-10-28T06:47:24;15.40;99.90
39067;DHT22;24821;51.988;6.020;2022-10-28T06:49:49;15.40;99.90
39067;DHT22;24821;51.988;6.020;2022-10-28T06:52:15;15.40;99.90
39067;DHT22;24821;51.988;6.020;2022-10-28T06:54:40;15.40;99.90
39067;DHT22;24821;51.988;6.020;2022-10-28T06:57:08;15.40;99.90
39067;DHT22;24821;51.988;6.020;2022-10-28T06:59:34;15.40;99.90
39067;DHT22;24821;51.988;6.020;2022-10-28T07:01:59;15.50;99.90
39067;DHT22;24821;51.988;6.020;2022-10-28T07:04:25;15.60;99.90
39067;DHT22;24821;51.988;6.020;2022-10-28T07:06:54;15.60;99.90
39067;DHT22;24821;51.988;6.020;2022-10-28T07:09:20;15.70;99.90
39067;DHT22;24821;51.988;6.020;2022-10-28T07:11:47;15.70;99.90
39067;DHT22;24821;51.988;6.020;2022-10-28T07:14:13;15.80;99.90
39067;DHT22;24821;51.988;6.020;2022-10-28T07:16:38;15.90;99.90
39067;DHT22;24821;51.988;6.020;2022-10-28T07:19:04;15.90;99.90
39067;DHT22;24821;51.988;6.020;2022-10-28T07:21:30;16.00;99.90
39067;DHT22;24821;51.988;6.020;2022-10-28T07:23:55;16.00;99.90
39067;DHT22;24821;51.988;6.020;2022-10-28T07:26:22;16.10;99.90
39067;DHT22;24821;51.988;6.020;2022-10-28T07:28:47;16.10;99.90
39067;DHT22;24821;51.988;6.020;2022-10-28T07:31:13;16.20;99.90
39067;DHT22;24821;51.988;6.020;2022-10-28T07:33:39;16.20;99.90
39067;DHT22;24821;51.988;6.020;2022-10-28T07:36:05;16.30;99.90
39067;DHT22;24821;51.988;6.020;2022-10-28T07:38:31;16.40;99.90
39067;DHT22;24821;51.988;6.020;2022-10-28T07:40:56;16.40;99.90
39067;DHT22;24821;51.988;6.020;2022-10-28T07:43:22;16.50;99.90
39067;DHT22;24821;51.988;6.020;2022-10-28T07:45:54;16.60;99.90
39067;DHT22;24821;51.988;6.020;2022-10-28T07:48:19;16.60;99.90
39067;DHT22;24821;51.988;6.020;2022-10-28T07:50:45;16.70;99.90
39067;DHT22;24821;51.988;6.020;2022-10-28T07:53:10;16.70;99.90
39067;DHT22;24821;51.988;6.020;2022-10-28T07:55:36;16.80;99.90
39067;DHT22;24821;51.988;6.020;2022-10-28T07:58:03;16.80;99.90
39067;DHT22;24821;51.988;6.020;2022-10-28T08:00:28;16.90;99.90
39067;DHT22;24821;51.988;6.020;2022-10-28T08:02:54;16.90;99.90
39067;DHT22;24821;51.988;6.020;2022-10-28T08:05:19;16.90;99.90
39067;DHT22;24821;51.988;6.020;2022-10-28T08:07:45;17.00;99.90
39067;DHT22;24821;51.988;6.020;2022-10-28T08:10:12;17.00;99.90
39067;DHT22;24821;51.988;6.020;2022-10-28T08:12:38;17.10;99.90
39067;DHT22;24821;51.988;6.020;2022-10-28T08:15:03;17.10;99.90
39067;DHT22;24821;51.988;6.020;2022-10-28T08:17:29;17.10;99.90
39067;DHT22;24821;51.988;6.020;2022-10-28T08:19:55;17.20;99.90
39067;DHT22;24821;51.988;6.020;2022-10-28T08:22:20;17.20;99.90
39067;DHT22;24821;51.988;6.020;2022-10-28T08:24:46;17.20;99.90
39067;DHT22;24821;51.988;6.020;2022-10-28T08:27:11;17.30;99.90
39067;DHT22;24821;51.988;6.020;2022-10-28T08:29:37;17.30;99.90
39067;DHT22;24821;51.988;6.020;2022-10-28T08:32:02;17.40;99.90
39067;DHT22;24821;51.988;6.020;2022-10-28T08:34:28;17.40;99.90
39067;DHT22;24821;51.988;6.020;2022-10-28T08:36:55;17.50;99.90
39067;DHT22;24821;51.988;6.020;2022-10-28T08:39:21;17.60;99.90
39067;DHT22;24821;51.988;6.020;2022-10-28T08:44:59;17.70;99.90
39067;DHT22;24821;51.988;6.020;2022-10-28T08:50:16;17.70;99.90
39067;DHT22;24821;51.988;6.020;2022-10-28T08:53:02;17.80;99.90
39067;DHT22;24821;51.988;6.020;2022-10-28T08:55:34;17.80;99.90
39067;DHT22;24821;51.988;6.020;2022-10-28T09:00:54;17.90;99.90
39067;DHT22;24821;51.988;6.020;2022-10-28T09:05:52;18.00;99.90
39067;DHT22;24821;51.988;6.020;2022-10-28T09:08:23;18.10;99.90
39067;DHT22;24821;51.988;6.020;2022-10-28T09:13:45;18.20;99.90
39067;DHT22;24821;51.988;6.020;2022-10-28T09:16:19;18.40;99.90
39067;DHT22;24821;51.988;6.020;2022-10-28T09:18:56;18.50;99.90
39067;DHT22;24821;51.988;6.020;2022-10-28T09:21:35;18.60;99.90
39067;DHT22;24821;51.988;6.020;2022-10-28T09:26:55;18.90;99.90
39067;DHT22;24821;51.988;6.020;2022-10-28T09:32:58;19.30;99.90
39067;DHT22;24821;51.988;6.020;2022-10-28T09:35:29;19.50;99.90
39067;DHT22;24821;51.988;6.020;2022-10-28T09:40:44;19.70;99.90
39067;DHT22;24821;51.988;6.020;2022-10-28T09:43:23;19.80;99.90
39067;DHT22;24821;51.988;6.020;2022-10-28T09:45:53;19.80;99.90
39067;DHT22;24821;51.988;6.020;2022-10-28T09:48:27;19.90;99.90
39067;DHT22;24821;51.988;6.020;2022-10-28T09:50:54;19.90;99.90
39067;DHT22;24821;51.988;6.020;2022-10-28T09:53:46;20.00;99.90
39067;DHT22;24821;51.988;6.020;2022-10-28T09:56:13;20.10;99.90
39067;DHT22;24821;51.988;6.020;2022-10-28T09:58:44;20.20;99.90
39067;DHT22;24821;51.988;6.020;2022-10-28T10:01:11;20.20;99.90
39067;DHT22;24821;51.988;6.020;2022-10-28T10:03:37;20.30;99.90
39067;DHT22;24821;51.988;6.020;2022-10-28T10:06:28;20.30;99.90
39067;DHT22;24821;51.988;6.020;2022-10-28T10:08:55;20.50;99.70
39067;DHT22;24821;51.988;6.020;2022-10-28T10:11:32;20.50;99.70
39067;DHT22;24821;51.988;6.020;2022-10-28T10:14:04;20.50;99.40
39067;DHT22;24821;51.988;6.020;2022-10-28T10:16:46;20.50;99.60
39067;DHT22;24821;51.988;6.020;2022-10-28T10:19:13;20.40;99.70
39067;DHT22;24821;51.988;6.020;2022-10-28T10:21:48;20.40;99.60
39067;DHT22;24821;51.988;6.020;2022-10-28T10:24:21;20.50;99.80
39067;DHT22;24821;51.988;6.020;2022-10-28T10:26:47;20.60;99.90
39067;DHT22;24821;51.988;6.020;2022-10-28T10:29:13;20.60;99.80
39067;DHT22;24821;51.988;6.020;2022-10-28T10:31:39;20.70;99.90
39067;DHT22;24821;51.988;6.020;2022-10-28T10:34:04;20.70;99.90
39067;DHT22;24821;51.988;6.020;2022-10-28T10:36:33;20.70;99.80
39067;DHT22;24821;51.988;6.020;2022-10-28T10:39:00;20.70;99.90
39067;DHT22;24821;51.988;6.020;2022-10-28T10:49:33;20.90;99.70
39067;DHT22;24821;51.988;6.020;2022-10-28T10:52:05;20.90;99.80
39067;DHT22;24821;51.988;6.020;2022-10-28T10:54:36;20.80;99.90
39067;DHT22;24821;51.988;6.020;2022-10-28T10:57:14;20.80;99.90
39067;DHT22;24821;51.988;6.020;2022-10-28T10:59:44;20.90;99.90
39067;DHT22;24821;51.988;6.020;2022-10-28T11:02:35;21.00;99.80
39067;DHT22;24821;51.988;6.020;2022-10-28T11:05:08;21.00;99.50
39067;DHT22;24821;51.988;6.020;2022-10-28T11:07:36;21.00;99.60
39067;DHT22;24821;51.988;6.020;2022-10-28T11:10:03;21.10;99.80
39067;DHT22;24821;51.988;6.020;2022-10-28T11:12:31;21.10;99.70
39067;DHT22;24821;51.988;6.020;2022-10-28T11:15:21;21.30;99.80
39067;DHT22;24821;51.988;6.020;2022-10-28T11:20:34;21.40;99.50
39067;DHT22;24821;51.988;6.020;2022-10-28T11:23:24;21.40;99.40
39067;DHT22;24821;51.988;6.020;2022-10-28T11:25:54;21.50;99.20
39067;DHT22;24821;51.988;6.020;2022-10-28T11:28:42;21.60;99.30
39067;DHT22;24821;51.988;6.020;2022-10-28T11:31:24;21.60;99.10
39067;DHT22;24821;51.988;6.020;2022-10-28T11:45:43;21.80;98.50
39067;DHT22;24821;51.988;6.020;2022-10-28T11:51:19;22.00;97.90
39067;DHT22;24821;51.988;6.020;2022-10-28T11:53:52;22.00;97.80
39067;DHT22;24821;51.988;6.020;2022-10-28T12:02:17;22.30;97.30
39067;DHT22;24821;51.988;6.020;2022-10-28T12:10:12;22.40;97.10
39067;DHT22;24821;51.988;6.020;2022-10-28T12:18:29;22.60;96.70
39067;DHT22;24821;51.988;6.020;2022-10-28T12:23:52;22.50;96.90
39067;DHT22;24821;51.988;6.020;2022-10-28T12:26:19;22.50;97.10
39067;DHT22;24821;51.988;6.020;2022-10-28T12:28:54;22.40;97.10
39067;DHT22;24821;51.988;6.020;2022-10-28T12:31:31;22.50;97.20
39067;DHT22;24821;51.988;6.020;2022-10-28T12:34:02;22.50;97.00
39067;DHT22;24821;51.988;6.020;2022-10-28T12:36:49;22.60;96.80
39067;DHT22;24821;51.988;6.020;2022-10-28T12:39:17;22.60;97.10
39067;DHT22;24821;51.988;6.020;2022-10-28T12:42:31;22.60;97.20
39067;DHT22;24821;51.988;6.020;2022-10-28T12:44:32;22.70;97.00
39067;DHT22;24821;51.988;6.020;2022-10-28T12:47:26;22.80;96.80
39067;DHT22;24821;51.988;6.020;2022-10-28T12:50:13;22.80;96.40
39067;DHT22;24821;51.988;6.020;2022-10-28T12:55:38;22.90;96.40
39067;DHT22;24821;51.988;6.020;2022-10-28T12:58:21;22.90;96.00
39067;DHT22;24821;51.988;6.020;2022-10-28T13:00:53;22.80;96.10
39067;DHT22;24821;51.988;6.020;2022-10-28T13:03:20;22.80;95.80
39067;DHT22;24821;51.988;6.020;2022-10-28T13:05:55;22.70;95.40
39067;DHT22;24821;51.988;6.020;2022-10-28T13:20:17;22.70;95.00
39067;DHT22;24821;51.988;6.020;2022-10-28T13:22:48;22.60;94.90
39067;DHT22;24821;51.988;6.020;2022-10-28T13:25:27;22.50;95.30
39067;DHT22;24821;51.988;6.020;2022-10-28T13:27:56;22.40;95.40
39067;DHT22;24821;51.988;6.020;2022-10-28T13:30:22;22.30;95.70
39067;DHT22;24821;51.988;6.020;2022-10-28T13:35:26;22.20;96.00
39067;DHT22;24821;51.988;6.020;2022-10-28T13:37:53;22.10;96.10
39067;DHT22;24821;51.988;6.020;2022-10-28T13:40:22;22.10;96.30
39067;DHT22;24821;51.988;6.020;2022-10-28T13:43:18;22.10;96.30
39067;DHT22;24821;51.988;6.020;2022-10-28T13:45:50;22.00;96.10
39067;DHT22;24821;51.988;6.020;2022-10-28T13:56:26;21.90;96.20
39067;DHT22;24821;51.988;6.020;2022-10-28T13:58:56;21.80;96.50
39067;DHT22;24821;51.988;6.020;2022-10-28T14:01:54;21.80;96.70
39067;DHT22;24821;51.988;6.020;2022-10-28T14:04:34;21.80;96.60
39067;DHT22;24821;51.988;6.020;2022-10-28T14:07:17;21.70;96.60
39067;DHT22;24821;51.988;6.020;2022-10-28T14:09:46;21.70;96.70
39067;DHT22;24821;51.988;6.020;2022-10-28T14:15:01;21.60;97.20
39067;DHT22;24821;51.988;6.020;2022-10-28T14:19:59;21.60;97.10
39067;DHT22;24821;51.988;6.020;2022-10-28T14:22:33;21.50;97.20
39067;DHT22;24821;51.988;6.020;2022-10-28T14:25:01;21.60;97.20
39067;DHT22;24821;51.988;6.020;2022-10-28T14:27:39;21.50;97.10
39067;DHT22;24821;51.988;6.020;2022-10-28T14:30:14;21.50;97.30
39067;DHT22;24821;51.988;6.020;2022-10-28T14:32:42;21.40;97.40
39067;DHT22;24821;51.988;6.020;2022-10-28T14:43:09;21.30;97.90
39067;DHT22;24821;51.988;6.020;2022-10-28T14:48:50;21.30;97.90
39067;DHT22;24821;51.988;6.020;2022-10-28T14:51:36;21.20;98.20
39067;DHT22;24821;51.988;6.020;2022-10-28T14:54:07;21.20;98.10
39067;DHT22;24821;51.988;6.020;2022-10-28T14:56:34;21.10;97.90
39067;DHT22;24821;51.988;6.020;2022-10-28T14:59:26;21.10;98.00
39067;DHT22;24821;51.988;6.020;2022-10-28T15:02:13;21.10;98.10
39067;DHT22;24821;51.988;6.020;2022-10-28T15:04:40;21.10;97.80
39067;DHT22;24821;51.988;6.020;2022-10-28T15:07:18;21.00;97.90
39067;DHT22;24821;51.988;6.020;2022-10-28T15:09:46;21.00;97.90
39067;DHT22;24821;51.988;6.020;2022-10-28T15:12:20;20.90;98.00
39067;DHT22;24821;51.988;6.020;2022-10-28T15:14:47;20.90;98.10
39067;DHT22;24821;51.988;6.020;2022-10-28T15:17:17;20.90;98.20
39067;DHT22;24821;51.988;6.020;2022-10-28T15:19:46;20.80;98.20
39067;DHT22;24821;51.988;6.020;2022-10-28T15:24:57;20.80;98.30
39067;DHT22;24821;51.988;6.020;2022-10-28T15:27:24;20.80;98.30
39067;DHT22;24821;51.988;6.020;2022-10-28T15:29:51;20.70;98.40
39067;DHT22;24821;51.988;6.020;2022-10-28T15:34:45;20.60;98.50
39067;DHT22;24821;51.988;6.020;2022-10-28T15:37:36;20.60;98.50
39067;DHT22;24821;51.988;6.020;2022-10-28T15:40:33;20.70;98.60
39067;DHT22;24821;51.988;6.020;2022-10-28T15:43:03;20.50;98.60
39067;DHT22;24821;51.988;6.020;2022-10-28T15:45:31;20.50;98.80
39067;DHT22;24821;51.988;6.020;2022-10-28T15:47:59;20.50;98.90
39067;DHT22;24821;51.988;6.020;2022-10-28T15:50:32;20.40;99.00
39067;DHT22;24821;51.988;6.020;2022-10-28T15:55:41;20.30;99.10
39067;DHT22;24821;51.988;6.020;2022-10-28T16:00:35;20.20;99.40
39067;DHT22;24821;51.988;6.020;2022-10-28T16:03:24;20.20;99.50
39067;DHT22;24821;51.988;6.020;2022-10-28T16:05:50;20.20;99.50
39067;DHT22;24821;51.988;6.020;2022-10-28T16:08:23;20.10;99.60
39067;DHT22;24821;51.988;6.020;2022-10-28T16:10:58;20.10;99.70
39067;DHT22;24821;51.988;6.020;2022-10-28T16:13:30;20.00;99.70
39067;DHT22;24821;51.988;6.020;2022-10-28T16:18:30;20.00;99.90
39067;DHT22;24821;51.988;6.020;2022-10-28T16:20:58;20.00;99.90
39067;DHT22;24821;51.988;6.020;2022-10-28T16:23:29;20.00;99.90
39067;DHT22;24821;51.988;6.020;2022-10-28T16:25:55;20.00;99.90
39067;DHT22;24821;51.988;6.020;2022-10-28T16:28:25;20.00;99.90
39067;DHT22;24821;51.988;6.020;2022-10-28T16:30:52;20.00;99.90
39067;DHT22;24821;51.988;6.020;2022-10-28T16:33:27;20.00;99.90
39067;DHT22;24821;51.988;6.020;2022-10-28T16:35:53;20.00;99.90
39067;DHT22;24821;51.988;6.020;2022-10-28T16:38:19;20.00;99.90
39067;DHT22;24821;51.988;6.020;2022-10-28T16:40:45;19.90;99.90
39067;DHT22;24821;51.988;6.020;2022-10-28T16:43:18;19.90;99.90
39067;DHT22;24821;51.988;6.020;2022-10-28T16:45:45;19.90;99.90
39067;DHT22;24821;51.988;6.020;2022-10-28T16:48:15;19.90;99.90
39067;DHT22;24821;51.988;6.020;2022-10-28T16:50:43;19.80;99.90
39067;DHT22;24821;51.988;6.020;2022-10-28T16:53:11;19.70;99.90
39067;DHT22;24821;51.988;6.020;2022-10-28T16:55:37;19.70;99.90
39067;DHT22;24821;51.988;6.020;2022-10-28T16:58:03;19.70;99.90
39067;DHT22;24821;51.988;6.020;2022-10-28T17:00:28;19.70;99.90
39067;DHT22;24821;51.988;6.020;2022-10-28T17:02:54;19.60;99.90
39067;DHT22;24821;51.988;6.020;2022-10-28T17:05:22;19.60;99.90
39067;DHT22;24821;51.988;6.020;2022-10-28T17:07:48;19.60;99.90
39067;DHT22;24821;51.988;6.020;2022-10-28T17:10:14;19.60;99.90
39067;DHT22;24821;51.988;6.020;2022-10-28T17:12:40;19.60;99.90
39067;DHT22;24821;51.988;6.020;2022-10-28T17:15:07;19.60;99.90
39067;DHT22;24821;51.988;6.020;2022-10-28T17:17:32;19.50;99.90
39067;DHT22;24821;51.988;6.020;2022-10-28T17:19:58;19.50;99.90
39067;DHT22;24821;51.988;6.020;2022-10-28T17:22:25;19.50;99.90
39067;DHT22;24821;51.988;6.020;2022-10-28T17:24:51;19.40;99.90
39067;DHT22;24821;51.988;6.020;2022-10-28T17:27:16;19.40;99.90
39067;DHT22;24821;51.988;6.020;2022-10-28T17:29:42;19.40;99.90
39067;DHT22;24821;51.988;6.020;2022-10-28T17:32:08;19.30;99.90
39067;DHT22;24821;51.988;6.020;2022-10-28T17:34:36;19.30;99.90
39067;DHT22;24821;51.988;6.020;2022-10-28T17:37:02;19.30;99.90
39067;DHT22;24821;51.988;6.020;2022-10-28T17:39:28;19.20;99.90
39067;DHT22;24821;51.988;6.020;2022-10-28T17:41:54;19.20;99.90
39067;DHT22;24821;51.988;6.020;2022-10-28T17:44:19;19.20;99.90
39067;DHT22;24821;51.988;6.020;2022-10-28T17:46:47;19.20;99.90
39067;DHT22;24821;51.988;6.020;2022-10-28T17:49:13;19.10;99.90
39067;DHT22;24821;51.988;6.020;2022-10-28T17:51:40;19.10;99.90
39067;DHT22;24821;51.988;6.020;2022-10-28T17:54:05;19.10;99.90
39067;DHT22;24821;51.988;6.020;2022-10-28T17:56:35;19.10;99.90
39067;DHT22;24821;51.988;6.020;2022-10-28T17:59:01;19.10;99.90
39067;DHT22;24821;51.988;6.020;2022-10-28T18:01:28;19.10;99.90
39067;DHT22;24821;51.988;6.020;2022-10-28T18:03:54;19.10;99.90
39067;DHT22;24821;51.988;6.020;2022-10-28T18:06:20;19.10;99.90
39067;DHT22;24821;51.988;6.020;2022-10-28T18:08:45;19.10;99.90
39067;DHT22;24821;51.988;6.020;2022-10-28T18:11:13;19.10;99.90
39067;DHT22;24821;51.988;6.020;2022-10-28T18:13:41;19.10;99.90
39067;DHT22;24821;51.988;6.020;2022-10-28T18:16:21;19.20;99.90
39067;DHT22;24821;51.988;6.020;2022-10-28T18:18:46;19.20;99.90
39067;DHT22;24821;51.988;6.020;2022-10-28T18:21:13;19.20;99.90
39067;DHT22;24821;51.988;6.020;2022-10-28T18:23:39;19.10;99.90
39067;DHT22;24821;51.988;6.020;2022-10-28T18:26:14;19.20;99.90